createdAt,value
2018-09-01T00:02:11.852Z,2.93
2018-09-01T00:04:40.333Z,3.23
2018-09-01T00:07:09.301Z,3.27
2018-09-01T00:09:37.907Z,3.10
2018-09-01T00:12:07.486Z,3.00
2018-09-01T00:14:37.201Z,2.87
2018-09-01T00:17:06.323Z,3.37
2018-09-01T00:19:35.087Z,2.67
2018-09-01T00:22:03.847Z,2.90
2018-09-01T00:24:32.353Z,3.97
2018-09-01T00:27:01.240Z,3.37
2018-09-01T00:29:30.090Z,3.10
2018-09-01T00:31:58.813Z,3.57
2018-09-01T00:34:27.419Z,3.17
2018-09-01T00:36:55.845Z,3.00
2018-09-01T00:39:24.397Z,4.00
2018-09-01T00:41:52.865Z,3.17
2018-09-01T00:44:21.358Z,3.43
2018-09-01T00:46:49.880Z,2.87
2018-09-01T00:49:18.405Z,3.73
2018-09-01T00:51:46.926Z,3.50
2018-09-01T00:54:15.620Z,3.30
2018-09-01T00:56:44.534Z,3.43
2018-09-01T00:59:13.133Z,3.70
2018-09-01T01:01:41.895Z,3.73
2018-09-01T01:04:10.625Z,3.40
2018-09-01T01:06:39.212Z,3.00
2018-09-01T01:09:07.895Z,3.37
2018-09-01T01:11:36.530Z,3.13
2018-09-01T01:14:05.025Z,2.97
2018-09-01T01:16:33.696Z,3.33
2018-09-01T01:19:02.193Z,3.40
2018-09-01T01:21:30.665Z,3.10
2018-09-01T01:23:59.167Z,3.63
2018-09-01T01:26:27.691Z,3.10
2018-09-01T01:28:56.250Z,3.73
2018-09-01T01:31:24.922Z,3.27
2018-09-01T01:33:53.733Z,3.33
2018-09-01T01:36:22.561Z,3.60
2018-09-01T01:38:51.129Z,3.23
2018-09-01T01:41:19.751Z,3.60
2018-09-01T01:43:48.683Z,2.80
2018-09-01T01:46:17.399Z,2.87
2018-09-01T01:48:46.131Z,3.43
2018-09-01T01:51:14.717Z,3.50
2018-09-01T01:53:43.450Z,2.80
2018-09-01T01:56:12.547Z,3.17
2018-09-01T01:58:41.359Z,3.17
2018-09-01T02:01:09.846Z,3.40
2018-09-01T02:03:38.560Z,3.20
2018-09-01T02:06:07.415Z,4.23
2018-09-01T02:08:36.090Z,3.00
2018-09-01T02:11:04.815Z,3.00
2018-09-01T02:13:33.401Z,3.30
2018-09-01T02:16:02.438Z,2.87
2018-09-01T02:18:31.012Z,2.90
2018-09-01T02:20:59.588Z,3.30
2018-09-01T02:23:28.155Z,3.53
2018-09-01T02:25:56.769Z,3.20
2018-09-01T02:28:25.359Z,3.33
2018-09-01T02:30:53.914Z,2.73
2018-09-01T02:33:22.659Z,2.90
2018-09-01T02:35:51.494Z,3.07
2018-09-01T02:38:20.009Z,3.23
2018-09-01T02:40:48.691Z,3.23
2018-09-01T02:43:17.268Z,3.20
2018-09-01T02:45:45.780Z,3.20
2018-09-01T02:48:14.715Z,3.10
2018-09-01T02:50:43.242Z,3.70
2018-09-01T02:53:11.885Z,3.07
2018-09-01T02:55:40.401Z,3.20
2018-09-01T02:58:08.947Z,3.30
2018-09-01T03:00:38.369Z,4.40
2018-09-01T03:03:06.932Z,3.70
2018-09-01T03:05:35.725Z,3.80
2018-09-01T03:08:04.536Z,4.30
2018-09-01T03:10:32.994Z,3.70
2018-09-01T03:13:01.633Z,4.83
2018-09-01T03:15:30.158Z,4.97
2018-09-01T03:17:58.690Z,3.80
2018-09-01T03:20:27.418Z,3.60
2018-09-01T03:22:55.897Z,3.70
2018-09-01T03:25:24.536Z,3.53
2018-09-01T03:27:53.794Z,3.00
2018-09-01T03:30:22.770Z,4.37
2018-09-01T03:32:51.557Z,3.63
2018-09-01T03:35:20.090Z,3.43
2018-09-01T03:37:49.456Z,3.90
2018-09-01T03:40:18.187Z,3.73
2018-09-01T03:42:46.848Z,3.87
2018-09-01T03:45:15.705Z,3.17
2018-09-01T03:47:45.005Z,4.30
2018-09-01T03:50:13.727Z,3.93
2018-09-01T03:52:42.382Z,4.10
2018-09-01T03:55:11.405Z,4.40
2018-09-01T03:57:40.048Z,4.13
2018-09-01T04:00:09.219Z,4.50
2018-09-01T04:02:38.074Z,4.50
2018-09-01T04:05:07.471Z,4.03
2018-09-01T04:07:36.285Z,4.57
2018-09-01T04:10:05.280Z,4.43
2018-09-01T04:12:33.871Z,3.63
2018-09-01T04:15:02.447Z,3.37
2018-09-01T04:17:30.924Z,3.50
2018-09-01T04:19:59.678Z,3.57
2018-09-01T04:22:28.476Z,3.70
2018-09-01T04:24:57.571Z,3.63
2018-09-01T04:27:26.620Z,3.70
2018-09-01T04:29:55.442Z,3.03
2018-09-01T04:32:24.471Z,4.17
2018-09-01T04:34:53.342Z,3.63
2018-09-01T04:37:22.077Z,3.47
2018-09-01T04:39:50.574Z,3.63
2018-09-01T04:42:19.424Z,4.37
2018-09-01T04:44:48.513Z,4.20
2018-09-01T04:47:17.574Z,3.73
2018-09-01T04:49:46.415Z,4.07
2018-09-01T04:52:15.418Z,4.00
2018-09-01T04:54:44.176Z,4.13
2018-09-01T04:57:13.014Z,3.90
2018-09-01T04:59:41.713Z,3.90
2018-09-01T05:02:10.814Z,4.43
2018-09-01T05:04:39.827Z,4.13
2018-09-01T05:07:08.369Z,5.10
2018-09-01T05:09:37.037Z,3.70
2018-09-01T05:12:05.546Z,3.60
2018-09-01T05:14:34.159Z,3.37
2018-09-01T05:17:02.747Z,4.13
2018-09-01T05:19:31.492Z,3.40
2018-09-01T05:22:00.294Z,4.67
2018-09-01T05:24:29.065Z,3.70
2018-09-01T05:26:58.073Z,4.07
2018-09-01T05:29:26.811Z,3.37
2018-09-01T05:31:55.340Z,3.40
2018-09-01T05:34:24.216Z,5.23
2018-09-01T05:36:52.954Z,3.53
2018-09-01T05:39:22.156Z,3.80
2018-09-01T05:41:50.945Z,3.63
2018-09-01T05:44:19.903Z,3.50
2018-09-01T05:46:49.151Z,4.13
2018-09-01T05:49:18.123Z,3.50
2018-09-01T05:51:47.020Z,3.27
2018-09-01T05:54:15.705Z,6.20
2018-09-01T05:56:44.648Z,4.20
2018-09-01T05:59:13.764Z,3.77
2018-09-01T06:01:42.552Z,3.73
2018-09-01T06:04:11.450Z,3.90
2018-09-01T06:06:40.724Z,3.20
2018-09-01T06:09:10.378Z,3.43
2018-09-01T06:11:39.499Z,3.37
2018-09-01T06:14:09.581Z,3.27
2018-09-01T06:16:38.871Z,2.80
2018-09-01T06:19:07.679Z,2.83
2018-09-01T06:21:36.509Z,3.20
2018-09-01T06:24:05.607Z,3.10
2018-09-01T06:26:34.632Z,3.80
2018-09-01T06:29:07.036Z,3.20
2018-09-01T06:31:35.790Z,2.60
2018-09-01T06:34:04.587Z,3.50
2018-09-01T06:36:33.067Z,2.63
2018-09-01T06:39:01.910Z,2.87
2018-09-01T06:41:30.530Z,3.10
2018-09-01T06:43:59.300Z,2.47
2018-09-01T06:46:27.912Z,3.00
2018-09-01T06:48:56.677Z,3.37
2018-09-01T06:51:25.370Z,3.63
2018-09-01T06:53:53.958Z,3.20
2018-09-01T06:56:22.884Z,3.70
2018-09-01T06:58:52.085Z,3.40
2018-09-01T07:01:20.742Z,3.53
2018-09-01T07:03:49.352Z,3.90
2018-09-01T07:06:18.032Z,3.63
2018-09-01T07:08:46.715Z,3.20
2018-09-01T07:11:15.449Z,3.43
2018-09-01T07:13:44.292Z,3.50
2018-09-01T07:16:13.113Z,3.60
2018-09-01T07:18:42.001Z,3.77
2018-09-01T07:21:11.623Z,4.77
2018-09-01T07:23:40.409Z,4.80
2018-09-01T07:26:09.382Z,5.12
2018-09-01T07:28:38.097Z,4.90
2018-09-01T07:31:06.987Z,4.45
2018-09-01T07:33:36.032Z,4.17
2018-09-01T07:36:04.820Z,4.78
2018-09-01T07:38:33.543Z,4.33
2018-09-01T07:41:02.093Z,4.37
2018-09-01T07:43:30.757Z,4.28
2018-09-01T07:45:59.240Z,3.37
2018-09-01T07:48:27.766Z,3.45
2018-09-01T07:50:56.271Z,2.27
2018-09-01T07:53:24.788Z,2.33
2018-09-01T07:55:53.408Z,2.05
2018-09-01T07:58:22.043Z,2.22
2018-09-01T08:00:50.556Z,2.22
2018-09-01T08:03:19.162Z,1.60
2018-09-01T08:05:47.921Z,2.10
2018-09-01T08:08:16.485Z,1.82
2018-09-01T08:10:45.274Z,2.00
2018-09-01T08:13:13.986Z,1.50
2018-09-01T08:15:42.648Z,1.82
2018-09-01T08:18:11.386Z,2.57
2018-09-01T08:20:40.041Z,3.22
2018-09-01T08:23:08.961Z,2.27
2018-09-01T08:25:37.690Z,2.47
2018-09-01T08:28:06.571Z,2.15
2018-09-01T08:30:35.270Z,2.27
2018-09-01T08:33:04.013Z,1.50
2018-09-01T08:35:32.529Z,1.63
2018-09-01T08:38:01.111Z,1.60
2018-09-01T08:40:29.640Z,1.90
2018-09-01T08:42:58.274Z,1.40
2018-09-01T08:45:26.820Z,1.30
2018-09-01T08:47:55.529Z,1.60
2018-09-01T08:50:24.043Z,1.70
2018-09-01T08:52:52.610Z,1.93
2018-09-01T08:55:21.125Z,1.80
2018-09-01T08:57:49.659Z,1.60
2018-09-01T09:00:18.154Z,1.67
2018-09-01T09:02:47.098Z,1.25
2018-09-01T09:05:15.693Z,1.30
2018-09-01T09:07:44.277Z,1.27
2018-09-01T09:10:12.884Z,1.40
2018-09-01T09:12:41.424Z,1.67
2018-09-01T09:15:09.912Z,1.80
2018-09-01T09:17:38.497Z,1.40
2018-09-01T09:20:07.195Z,1.45
2018-09-01T09:22:36.015Z,1.90
2018-09-01T09:25:04.595Z,1.57
2018-09-01T09:27:33.116Z,1.55
2018-09-01T09:30:01.644Z,1.20
2018-09-01T09:32:30.313Z,1.45
2018-09-01T09:34:58.811Z,0.95
2018-09-01T09:37:27.410Z,1.37
2018-09-01T09:39:56.147Z,1.45
2018-09-01T09:42:24.837Z,1.95
2018-09-01T09:44:53.374Z,1.20
2018-09-01T09:47:22.115Z,1.12
2018-09-01T09:49:50.786Z,1.27
2018-09-01T09:52:19.421Z,1.70
2018-09-01T09:54:49.508Z,1.00
2018-09-01T09:57:18.047Z,1.10
2018-09-01T09:59:46.706Z,1.15
2018-09-01T10:02:15.224Z,1.12
2018-09-01T10:04:43.983Z,1.35
2018-09-01T10:07:12.793Z,1.22
2018-09-01T10:09:42.797Z,1.20
2018-09-01T10:12:11.881Z,1.27
2018-09-01T10:14:40.372Z,1.23
2018-09-01T10:17:08.898Z,1.05
2018-09-01T10:19:37.608Z,1.50
2018-09-01T10:22:06.256Z,1.22
2018-09-01T10:24:34.780Z,1.50
2018-09-01T10:27:03.316Z,1.72
2018-09-01T10:29:32.697Z,1.35
2018-09-01T10:32:01.496Z,1.50
2018-09-01T10:34:30.185Z,1.90
2018-09-01T10:36:58.782Z,1.62
2018-09-01T10:39:27.379Z,1.37
2018-09-01T10:41:55.946Z,1.60
2018-09-01T10:44:24.462Z,1.53
2018-09-01T10:46:53.205Z,1.20
2018-09-01T10:49:21.797Z,1.40
2018-09-01T10:51:50.362Z,1.77
2018-09-01T10:54:19.023Z,1.30
2018-09-01T10:56:47.786Z,1.23
2018-09-01T10:59:16.305Z,1.33
2018-09-01T11:01:44.918Z,0.97
2018-09-01T11:04:13.531Z,1.10
2018-09-01T11:06:42.050Z,1.40
2018-09-01T11:09:11.329Z,0.97
2018-09-01T11:11:40.073Z,1.50
2018-09-01T11:14:08.648Z,1.00
2018-09-01T11:16:37.250Z,1.20
2018-09-01T11:19:05.770Z,1.33
2018-09-01T11:21:34.322Z,1.20
2018-09-01T11:24:02.798Z,0.60
2018-09-01T11:26:32.164Z,1.20
2018-09-01T11:29:00.730Z,1.60
2018-09-01T11:31:29.426Z,0.90
2018-09-01T11:33:57.931Z,1.00
2018-09-01T11:36:26.438Z,1.00
2018-09-01T11:38:55.003Z,1.10
2018-09-01T11:41:23.568Z,1.40
2018-09-01T11:43:52.078Z,1.10
2018-09-01T11:46:20.732Z,1.00
2018-09-01T11:48:49.254Z,0.93
2018-09-01T11:51:17.841Z,0.90
2018-09-01T11:53:46.379Z,1.47
2018-09-01T11:56:14.881Z,1.20
2018-09-01T11:58:43.447Z,1.43
2018-09-01T12:01:11.930Z,0.97
2018-09-01T12:03:40.469Z,1.10
2018-09-01T12:06:09.038Z,1.10
2018-09-01T12:08:37.590Z,0.90
2018-09-01T12:11:06.192Z,1.03
2018-09-01T12:13:34.797Z,1.53
2018-09-01T12:16:03.419Z,1.30
2018-09-01T12:18:32.034Z,1.50
2018-09-01T12:21:00.587Z,1.43
2018-09-01T12:23:29.170Z,1.30
2018-09-01T12:25:57.719Z,1.10
2018-09-01T12:28:26.214Z,1.27
2018-09-01T12:30:54.802Z,1.20
2018-09-01T12:33:23.369Z,1.23
2018-09-01T12:35:51.856Z,1.60
2018-09-01T12:38:20.396Z,1.63
2018-09-01T12:40:48.967Z,1.37
2018-09-01T12:43:17.438Z,3.87
2018-09-01T12:45:46.051Z,1.40
2018-09-01T12:48:14.528Z,1.70
2018-09-01T12:50:45.016Z,1.10
2018-09-01T12:53:13.614Z,1.23
2018-09-01T12:55:42.224Z,1.47
2018-09-01T12:58:10.918Z,1.20
2018-09-01T13:00:39.769Z,1.70
2018-09-01T13:03:08.258Z,1.67
2018-09-01T13:05:36.792Z,1.83
2018-09-01T13:08:11.759Z,1.43
2018-09-01T13:10:40.561Z,1.50
2018-09-01T13:13:09.053Z,1.73
2018-09-01T13:15:37.627Z,1.50
2018-09-01T13:18:06.356Z,1.30
2018-09-01T13:20:34.999Z,1.63
2018-09-01T13:23:03.538Z,1.13
2018-09-01T13:25:32.131Z,1.53
2018-09-01T13:28:00.597Z,1.60
2018-09-01T13:30:29.125Z,2.50
2018-09-01T13:32:57.594Z,1.33
2018-09-01T13:35:26.241Z,1.47
2018-09-01T13:37:55.841Z,2.47
2018-09-01T13:40:24.364Z,2.10
2018-09-01T13:42:53.114Z,2.10
2018-09-01T13:45:21.625Z,1.53
2018-09-01T13:47:50.222Z,1.57
2018-09-01T13:50:18.747Z,3.10
2018-09-01T13:52:47.256Z,1.83
2018-09-01T13:55:15.751Z,1.67
2018-09-01T13:57:44.317Z,1.90
2018-09-01T14:00:12.985Z,1.50
2018-09-01T14:02:41.657Z,1.40
2018-09-01T14:05:10.157Z,1.40
2018-09-01T14:07:38.767Z,1.90
2018-09-01T14:10:07.517Z,1.77
2018-09-01T14:12:36.323Z,1.97
2018-09-01T14:15:04.949Z,1.80
2018-09-01T14:17:33.500Z,1.57
2018-09-01T14:20:02.215Z,1.30
2018-09-01T14:22:30.781Z,1.30
2018-09-01T14:24:59.407Z,1.60
2018-09-01T14:27:27.935Z,1.53
2018-09-01T14:29:56.501Z,1.40
2018-09-01T14:32:25.106Z,1.63
2018-09-01T14:34:53.686Z,1.53
2018-09-01T14:37:22.292Z,1.77
2018-09-01T14:39:50.853Z,1.50
2018-09-01T14:42:19.410Z,1.70
2018-09-01T14:44:47.871Z,1.50
2018-09-01T14:47:16.410Z,1.43
2018-09-01T14:49:45.197Z,1.93
2018-09-01T14:52:13.667Z,1.57
2018-09-01T14:54:42.115Z,1.20
2018-09-01T14:57:10.602Z,1.27
2018-09-01T14:59:39.193Z,1.70
2018-09-01T15:02:07.871Z,1.30
2018-09-01T15:04:36.640Z,1.63
2018-09-01T15:07:05.504Z,1.70
2018-09-01T15:09:33.989Z,1.87
2018-09-01T15:12:02.539Z,1.50
2018-09-01T15:14:31.113Z,1.80
2018-09-01T15:16:59.688Z,1.93
2018-09-01T15:19:28.279Z,1.57
2018-09-01T15:21:56.821Z,1.73
2018-09-01T15:24:25.456Z,1.37
2018-09-01T15:26:54.093Z,1.70
2018-09-01T15:29:22.610Z,1.70
2018-09-01T15:31:51.080Z,1.60
2018-09-01T15:34:19.645Z,1.70
2018-09-01T15:36:48.215Z,1.63
2018-09-01T15:39:16.748Z,2.00
2018-09-01T15:41:45.327Z,1.47
2018-09-01T15:44:14.387Z,1.43
2018-09-01T15:46:43.253Z,1.47
2018-09-01T15:49:11.782Z,2.00
2018-09-01T15:51:40.349Z,1.77
2018-09-01T15:54:09.048Z,1.63
2018-09-01T15:56:37.723Z,1.50
2018-09-01T15:59:06.462Z,1.87
2018-09-01T16:01:35.002Z,1.67
2018-09-01T16:04:03.516Z,1.60
2018-09-01T16:06:32.135Z,1.57
2018-09-01T16:09:00.705Z,1.77
2018-09-01T16:11:29.341Z,1.83
2018-09-01T16:13:58.090Z,1.70
2018-09-01T16:16:26.675Z,1.83
2018-09-01T16:18:55.321Z,1.50
2018-09-01T16:21:23.847Z,1.50
2018-09-01T16:23:52.365Z,1.70
2018-09-01T16:26:20.908Z,1.70
2018-09-01T16:28:49.397Z,1.60
2018-09-01T16:31:18.008Z,1.40
2018-09-01T16:33:46.776Z,1.80
2018-09-01T16:36:15.363Z,2.20
2018-09-01T16:38:43.904Z,2.07
2018-09-01T16:41:12.398Z,1.67
2018-09-01T16:43:40.915Z,2.17
2018-09-01T16:46:09.475Z,1.70
2018-09-01T16:48:37.987Z,1.80
2018-09-01T16:51:06.739Z,1.73
2018-09-01T16:53:35.296Z,1.60
2018-09-01T16:56:03.943Z,1.87
2018-09-01T16:58:32.437Z,2.03
2018-09-01T17:01:01.091Z,2.20
2018-09-01T17:03:29.669Z,1.87
2018-09-01T17:05:58.194Z,2.20
2018-09-01T17:08:26.919Z,1.93
2018-09-01T17:10:55.762Z,1.90
2018-09-01T17:13:24.300Z,2.03
2018-09-01T17:15:52.888Z,1.90
2018-09-01T17:18:21.537Z,2.30
2018-09-01T17:20:50.148Z,2.37
2018-09-01T17:23:18.784Z,2.30
2018-09-01T17:25:47.513Z,2.20
2018-09-01T17:28:16.029Z,1.50
2018-09-01T17:30:44.561Z,1.60
2018-09-01T17:33:13.211Z,2.10
2018-09-01T17:35:41.677Z,2.00
2018-09-01T17:38:10.213Z,2.10
2018-09-01T17:40:38.688Z,1.93
2018-09-01T17:43:07.237Z,2.60
2018-09-01T17:45:35.673Z,1.93
2018-09-01T17:48:04.359Z,2.07
2018-09-01T17:50:32.985Z,1.87
2018-09-01T17:53:01.544Z,2.67
2018-09-01T17:55:29.982Z,2.30
2018-09-01T17:57:58.724Z,2.10
2018-09-01T18:00:27.307Z,1.87
2018-09-01T18:02:55.836Z,2.67
2018-09-01T18:05:24.317Z,2.20
2018-09-01T18:07:53.015Z,2.30
2018-09-01T18:10:21.721Z,2.33
2018-09-01T18:12:50.272Z,1.90
2018-09-01T18:15:18.873Z,2.13
2018-09-01T18:17:47.602Z,2.20
2018-09-01T18:20:16.155Z,2.37
2018-09-01T18:22:44.764Z,2.17
2018-09-01T18:25:13.291Z,1.80
2018-09-01T18:27:41.922Z,2.00
2018-09-01T18:30:10.603Z,2.37
2018-09-01T18:32:39.218Z,2.43
2018-09-01T18:35:09.283Z,2.37
2018-09-01T18:37:38.106Z,2.40
2018-09-01T18:40:06.659Z,2.77
2018-09-01T18:42:35.265Z,2.60
2018-09-01T18:45:03.849Z,2.70
2018-09-01T18:47:32.499Z,2.70
2018-09-01T18:50:01.058Z,2.67
2018-09-01T18:52:29.718Z,4.10
2018-09-01T18:54:58.287Z,2.70
2018-09-01T18:57:26.740Z,2.70
2018-09-01T18:59:55.240Z,2.93
2018-09-01T19:02:23.809Z,3.43
2018-09-01T19:04:52.367Z,3.50
2018-09-01T19:07:20.845Z,3.03
2018-09-01T19:09:49.453Z,2.80
2018-09-01T19:12:18.017Z,2.60
2018-09-01T19:14:46.555Z,3.10
2018-09-01T19:17:15.032Z,2.97
2018-09-01T19:19:43.569Z,3.63
2018-09-01T19:22:12.095Z,4.03
2018-09-01T19:24:40.656Z,4.00
2018-09-01T19:27:09.293Z,3.63
2018-09-01T19:29:37.938Z,5.50
2018-09-01T19:32:06.502Z,4.53
2018-09-01T19:34:35.402Z,4.63
2018-09-01T19:37:03.978Z,5.67
2018-09-01T19:39:32.554Z,6.17
2018-09-01T19:42:01.165Z,6.73
2018-09-01T19:44:29.814Z,6.37
2018-09-01T19:46:58.532Z,6.20
2018-09-01T19:49:27.136Z,5.70
2018-09-01T19:51:55.893Z,5.37
2018-09-01T19:54:24.662Z,4.43
2018-09-01T19:56:53.342Z,4.23
2018-09-01T19:59:21.932Z,4.40
2018-09-01T20:01:50.473Z,4.83
2018-09-01T20:04:19.048Z,5.53
2018-09-01T20:06:47.508Z,5.30
2018-09-01T20:09:16.318Z,5.10
2018-09-01T20:11:44.999Z,3.63
2018-09-01T20:14:14.037Z,4.23
2018-09-01T20:16:42.555Z,4.30
2018-09-01T20:19:11.264Z,3.83
2018-09-01T20:21:39.727Z,4.03
2018-09-01T20:24:08.510Z,4.23
2018-09-01T20:26:37.089Z,4.77
2018-09-01T20:29:05.647Z,3.80
2018-09-01T20:31:34.109Z,4.13
2018-09-01T20:34:02.629Z,3.67
2018-09-01T20:36:31.150Z,3.73
2018-09-01T20:38:59.686Z,4.37
2018-09-01T20:41:28.307Z,3.77
2018-09-01T20:43:56.870Z,4.30
2018-09-01T20:46:25.440Z,4.03
2018-09-01T20:48:54.038Z,3.97
2018-09-01T20:51:22.465Z,3.83
2018-09-01T20:53:50.970Z,3.53
2018-09-01T20:56:19.512Z,4.40
2018-09-01T20:58:48.082Z,4.20
2018-09-01T21:01:16.641Z,4.63
2018-09-01T21:03:45.210Z,4.30
2018-09-01T21:06:13.745Z,4.80
2018-09-01T21:08:42.382Z,4.57
2018-09-01T21:11:10.912Z,4.30
2018-09-01T21:13:39.405Z,3.97
2018-09-01T21:16:07.821Z,4.10
2018-09-01T21:18:36.395Z,4.00
2018-09-01T21:21:05.162Z,3.53
2018-09-01T21:23:33.828Z,3.93
2018-09-01T21:26:02.294Z,4.23
2018-09-01T21:28:30.917Z,3.93
2018-09-01T21:30:59.430Z,3.60
2018-09-01T21:33:28.049Z,3.67
2018-09-01T21:35:56.601Z,4.03
2018-09-01T21:38:25.177Z,3.80
2018-09-01T21:40:53.950Z,4.00
2018-09-01T21:43:22.680Z,3.90
2018-09-01T21:45:51.314Z,4.37
2018-09-01T21:48:20.235Z,5.13
2018-09-01T21:50:48.842Z,6.17
2018-09-01T21:53:17.474Z,4.57
2018-09-01T21:55:46.064Z,4.53
2018-09-01T21:58:14.735Z,5.47
2018-09-01T22:00:47.629Z,5.63
2018-09-01T22:03:16.256Z,6.23
2018-09-01T22:05:45.090Z,5.80
2018-09-01T22:08:14.191Z,5.20
2018-09-01T22:10:42.833Z,4.97
2018-09-01T22:13:11.460Z,5.30
2018-09-01T22:15:40.052Z,5.30
2018-09-01T22:18:08.754Z,5.27
2018-09-01T22:20:37.392Z,4.53
2018-09-01T22:23:06.044Z,4.67
2018-09-01T22:25:35.103Z,4.53
2018-09-01T22:28:03.731Z,5.10
2018-09-01T22:30:32.973Z,4.30
2018-09-01T22:33:01.660Z,4.97
2018-09-01T22:35:30.404Z,4.80
2018-09-01T22:37:59.003Z,4.63
2018-09-01T22:40:27.487Z,5.63
2018-09-01T22:45:22.752Z,5.00
2018-09-01T22:47:51.265Z,5.20
2018-09-01T22:50:19.813Z,4.83
2018-09-01T22:52:48.327Z,5.70
2018-09-01T22:55:17.016Z,5.33
2018-09-01T22:57:45.718Z,4.67
2018-09-01T23:00:14.411Z,4.80
2018-09-01T23:02:42.908Z,5.20
2018-09-01T23:05:11.687Z,4.33
2018-09-01T23:07:40.400Z,4.67
2018-09-01T23:10:09.067Z,5.33
2018-09-01T23:12:37.598Z,4.90
2018-09-01T23:15:06.441Z,4.73
2018-09-01T23:17:34.912Z,5.90
2018-09-01T23:20:03.482Z,5.90
2018-09-01T23:22:31.947Z,4.93
2018-09-01T23:25:00.531Z,5.30
2018-09-01T23:27:29.670Z,5.13
2018-09-01T23:29:58.194Z,6.13
2018-09-01T23:32:26.649Z,6.37
2018-09-01T23:34:55.142Z,6.00
2018-09-01T23:37:23.614Z,5.23
2018-09-01T23:39:52.325Z,5.20
2018-09-01T23:42:20.858Z,5.50
2018-09-01T23:44:49.375Z,5.93
2018-09-01T23:47:17.871Z,5.77
2018-09-01T23:49:46.381Z,6.40
2018-09-01T23:52:14.904Z,5.33
2018-09-01T23:54:43.360Z,5.30
2018-09-01T23:57:11.942Z,5.53
2018-09-01T23:59:40.432Z,5.27
